sensor_id;sensor_type;location;lat;lon;timestamp;P1;durP1;ratioP1;P2;durP2;ratioP2
8909;SDS011;4490;49.072;8.804;2022-08-02T00:02:00;2.75;;;1.50;;
8909;SDS011;4490;49.072;8.804;2022-08-02T00:04:28;2.65;;;1.95;;
8909;SDS011;4490;49.072;8.804;2022-08-02T00:06:54;2.78;;;1.83;;
8909;SDS011;4490;49.072;8.804;2022-08-02T00:09:20;1.70;;;1.55;;
8909;SDS011;4490;49.072;8.804;2022-08-02T00:11:46;1.85;;;1.65;;
8909;SDS011;4490;49.072;8.804;2022-08-02T00:14:12;2.05;;;1.60;;
8909;SDS011;4490;49.072;8.804;2022-08-02T00:16:38;3.17;;;1.70;;
8909;SDS011;4490;49.072;8.804;2022-08-02T00:19:03;1.70;;;1.60;;
8909;SDS011;4490;49.072;8.804;2022-08-02T00:21:29;2.08;;;1.50;;
8909;SDS011;4490;49.072;8.804;2022-08-02T00:23:55;3.22;;;1.70;;
8909;SDS011;4490;49.072;8.804;2022-08-02T00:26:21;2.00;;;1.80;;
8909;SDS011;4490;49.072;8.804;2022-08-02T00:28:46;2.63;;;1.80;;
8909;SDS011;4490;49.072;8.804;2022-08-02T00:31:12;3.45;;;2.03;;
8909;SDS011;4490;49.072;8.804;2022-08-02T00:33:37;2.22;;;1.92;;
8909;SDS011;4490;49.072;8.804;2022-08-02T00:36:03;3.00;;;2.00;;
8909;SDS011;4490;49.072;8.804;2022-08-02T00:38:29;2.15;;;1.90;;
8909;SDS011;4490;49.072;8.804;2022-08-02T00:40:55;2.10;;;1.90;;
8909;SDS011;4490;49.072;8.804;2022-08-02T00:43:20;1.90;;;1.80;;
8909;SDS011;4490;49.072;8.804;2022-08-02T00:45:46;2.75;;;2.20;;
8909;SDS011;4490;49.072;8.804;2022-08-02T00:48:12;3.55;;;1.95;;
8909;SDS011;4490;49.072;8.804;2022-08-02T00:50:38;2.50;;;2.30;;
8909;SDS011;4490;49.072;8.804;2022-08-02T00:53:05;2.80;;;2.60;;
8909;SDS011;4490;49.072;8.804;2022-08-02T00:55:33;3.08;;;2.10;;
8909;SDS011;4490;49.072;8.804;2022-08-02T00:58:00;2.20;;;2.00;;
8909;SDS011;4490;49.072;8.804;2022-08-02T01:00:26;3.28;;;2.47;;
8909;SDS011;4490;49.072;8.804;2022-08-02T01:02:52;6.18;;;2.40;;
8909;SDS011;4490;49.072;8.804;2022-08-02T01:05:18;2.78;;;2.13;;
8909;SDS011;4490;49.072;8.804;2022-08-02T01:07:43;3.25;;;2.25;;
8909;SDS011;4490;49.072;8.804;2022-08-02T01:10:09;2.40;;;2.20;;
8909;SDS011;4490;49.072;8.804;2022-08-02T01:12:35;5.55;;;2.63;;
8909;SDS011;4490;49.072;8.804;2022-08-02T01:15:02;2.85;;;2.35;;
8909;SDS011;4490;49.072;8.804;2022-08-02T01:23:13;2.38;;;2.17;;
8909;SDS011;4490;49.072;8.804;2022-08-02T01:31:22;3.35;;;2.40;;
8909;SDS011;4490;49.072;8.804;2022-08-02T01:34:01;2.78;;;2.28;;
8909;SDS011;4490;49.072;8.804;2022-08-02T01:36:48;2.58;;;2.30;;
8909;SDS011;4490;49.072;8.804;2022-08-02T01:39:20;2.93;;;2.10;;
8909;SDS011;4490;49.072;8.804;2022-08-02T01:41:50;2.58;;;2.38;;
8909;SDS011;4490;49.072;8.804;2022-08-02T01:44:18;2.30;;;2.10;;
8909;SDS011;4490;49.072;8.804;2022-08-02T01:46:46;3.50;;;2.38;;
8909;SDS011;4490;49.072;8.804;2022-08-02T01:49:15;4.03;;;2.42;;
8909;SDS011;4490;49.072;8.804;2022-08-02T01:51:45;2.63;;;2.42;;
8909;SDS011;4490;49.072;8.804;2022-08-02T01:54:32;2.95;;;2.40;;
8909;SDS011;4490;49.072;8.804;2022-08-02T01:57:01;2.40;;;2.20;;
8909;SDS011;4490;49.072;8.804;2022-08-02T01:59:29;2.40;;;2.20;;
8909;SDS011;4490;49.072;8.804;2022-08-02T02:01:56;5.00;;;2.05;;
8909;SDS011;4490;49.072;8.804;2022-08-02T02:04:24;2.40;;;2.20;;
8909;SDS011;4490;49.072;8.804;2022-08-02T02:06:52;5.95;;;2.30;;
8909;SDS011;4490;49.072;8.804;2022-08-02T02:09:19;2.83;;;2.20;;
8909;SDS011;4490;49.072;8.804;2022-08-02T02:11:46;2.50;;;2.25;;
8909;SDS011;4490;49.072;8.804;2022-08-02T02:14:13;2.65;;;2.20;;
8909;SDS011;4490;49.072;8.804;2022-08-02T02:16:41;3.30;;;2.00;;
8909;SDS011;4490;49.072;8.804;2022-08-02T02:19:09;2.28;;;2.08;;
8909;SDS011;4490;49.072;8.804;2022-08-02T02:21:36;2.53;;;2.30;;
8909;SDS011;4490;49.072;8.804;2022-08-02T02:24:02;2.58;;;2.20;;
8909;SDS011;4490;49.072;8.804;2022-08-02T02:26:28;3.58;;;2.40;;
8909;SDS011;4490;49.072;8.804;2022-08-02T02:28:55;2.53;;;2.08;;
8909;SDS011;4490;49.072;8.804;2022-08-02T02:31:25;2.77;;;2.10;;
8909;SDS011;4490;49.072;8.804;2022-08-02T02:33:57;3.07;;;2.20;;
8909;SDS011;4490;49.072;8.804;2022-08-02T02:36:27;2.20;;;2.00;;
8909;SDS011;4490;49.072;8.804;2022-08-02T02:38:55;2.30;;;2.10;;
8909;SDS011;4490;49.072;8.804;2022-08-02T02:41:23;2.70;;;2.30;;
8909;SDS011;4490;49.072;8.804;2022-08-02T02:43:51;2.78;;;2.20;;
8909;SDS011;4490;49.072;8.804;2022-08-02T02:46:19;2.97;;;2.50;;
8909;SDS011;4490;49.072;8.804;2022-08-02T02:48:46;5.37;;;2.47;;
8909;SDS011;4490;49.072;8.804;2022-08-02T02:51:15;3.03;;;2.50;;
8909;SDS011;4490;49.072;8.804;2022-08-02T02:53:42;3.13;;;2.35;;
8909;SDS011;4490;49.072;8.804;2022-08-02T02:56:08;2.80;;;2.37;;
8909;SDS011;4490;49.072;8.804;2022-08-02T02:58:36;2.83;;;2.10;;
8909;SDS011;4490;49.072;8.804;2022-08-02T03:01:02;2.80;;;2.30;;
8909;SDS011;4490;49.072;8.804;2022-08-02T03:03:46;2.50;;;2.30;;
8909;SDS011;4490;49.072;8.804;2022-08-02T03:06:13;2.20;;;2.00;;
8909;SDS011;4490;49.072;8.804;2022-08-02T03:08:39;3.10;;;2.10;;
8909;SDS011;4490;49.072;8.804;2022-08-02T03:11:06;3.70;;;2.37;;
8909;SDS011;4490;49.072;8.804;2022-08-02T03:13:33;2.30;;;2.10;;
8909;SDS011;4490;49.072;8.804;2022-08-02T03:15:59;3.53;;;2.10;;
8909;SDS011;4490;49.072;8.804;2022-08-02T03:21:00;3.20;;;2.20;;
8909;SDS011;4490;49.072;8.804;2022-08-02T03:23:27;2.60;;;2.40;;
8909;SDS011;4490;49.072;8.804;2022-08-02T03:25:53;5.10;;;2.33;;
8909;SDS011;4490;49.072;8.804;2022-08-02T03:28:18;4.73;;;2.20;;
8909;SDS011;4490;49.072;8.804;2022-08-02T03:30:44;2.60;;;2.20;;
8909;SDS011;4490;49.072;8.804;2022-08-02T03:33:10;2.90;;;2.23;;
8909;SDS011;4490;49.072;8.804;2022-08-02T03:35:36;3.73;;;2.60;;
8909;SDS011;4490;49.072;8.804;2022-08-02T03:38:02;2.83;;;2.40;;
8909;SDS011;4490;49.072;8.804;2022-08-02T03:40:29;2.70;;;2.50;;
8909;SDS011;4490;49.072;8.804;2022-08-02T03:42:55;3.40;;;2.80;;
8909;SDS011;4490;49.072;8.804;2022-08-02T03:45:22;2.63;;;2.43;;
8909;SDS011;4490;49.072;8.804;2022-08-02T03:47:49;2.93;;;2.60;;
8909;SDS011;4490;49.072;8.804;2022-08-02T03:50:16;3.30;;;2.67;;
8909;SDS011;4490;49.072;8.804;2022-08-02T03:52:43;3.07;;;2.70;;
8909;SDS011;4490;49.072;8.804;2022-08-02T03:55:11;2.70;;;2.50;;
8909;SDS011;4490;49.072;8.804;2022-08-02T03:57:38;3.30;;;2.23;;
8909;SDS011;4490;49.072;8.804;2022-08-02T04:00:04;3.13;;;2.83;;
8909;SDS011;4490;49.072;8.804;2022-08-02T04:02:31;2.97;;;2.77;;
8909;SDS011;4490;49.072;8.804;2022-08-02T04:04:57;2.87;;;2.60;;
8909;SDS011;4490;49.072;8.804;2022-08-02T04:07:23;4.07;;;2.50;;
8909;SDS011;4490;49.072;8.804;2022-08-02T04:09:48;3.47;;;2.50;;
8909;SDS011;4490;49.072;8.804;2022-08-02T04:12:14;3.03;;;2.73;;
8909;SDS011;4490;49.072;8.804;2022-08-02T04:14:39;3.37;;;2.83;;
8909;SDS011;4490;49.072;8.804;2022-08-02T04:17:06;2.93;;;2.70;;
8909;SDS011;4490;49.072;8.804;2022-08-02T04:22:02;5.03;;;2.90;;
8909;SDS011;4490;49.072;8.804;2022-08-02T04:24:30;3.67;;;2.87;;
8909;SDS011;4490;49.072;8.804;2022-08-02T04:27:02;3.57;;;2.83;;
8909;SDS011;4490;49.072;8.804;2022-08-02T04:29:29;3.60;;;2.60;;
8909;SDS011;4490;49.072;8.804;2022-08-02T04:31:56;5.03;;;3.20;;
8909;SDS011;4490;49.072;8.804;2022-08-02T04:34:22;5.10;;;3.10;;
8909;SDS011;4490;49.072;8.804;2022-08-02T04:36:48;4.77;;;2.90;;
8909;SDS011;4490;49.072;8.804;2022-08-02T04:39:14;4.23;;;2.90;;
8909;SDS011;4490;49.072;8.804;2022-08-02T04:41:43;3.20;;;2.90;;
8909;SDS011;4490;49.072;8.804;2022-08-02T04:44:10;3.23;;;2.93;;
8909;SDS011;4490;49.072;8.804;2022-08-02T04:46:37;3.50;;;2.87;;
8909;SDS011;4490;49.072;8.804;2022-08-02T04:49:03;3.40;;;3.10;;
8909;SDS011;4490;49.072;8.804;2022-08-02T04:51:29;3.87;;;3.00;;
8909;SDS011;4490;49.072;8.804;2022-08-02T04:53:54;3.63;;;2.87;;
8909;SDS011;4490;49.072;8.804;2022-08-02T04:56:20;3.83;;;2.93;;
8909;SDS011;4490;49.072;8.804;2022-08-02T04:58:45;3.50;;;3.00;;
8909;SDS011;4490;49.072;8.804;2022-08-02T05:01:11;4.63;;;3.10;;
8909;SDS011;4490;49.072;8.804;2022-08-02T05:03:37;4.33;;;3.17;;
8909;SDS011;4490;49.072;8.804;2022-08-02T05:06:02;3.47;;;3.17;;
8909;SDS011;4490;49.072;8.804;2022-08-02T05:08:28;3.10;;;2.80;;
8909;SDS011;4490;49.072;8.804;2022-08-02T05:10:54;4.23;;;3.40;;
8909;SDS011;4490;49.072;8.804;2022-08-02T05:13:19;3.63;;;2.90;;
8909;SDS011;4490;49.072;8.804;2022-08-02T05:15:48;4.10;;;3.30;;
8909;SDS011;4490;49.072;8.804;2022-08-02T05:18:16;3.27;;;2.97;;
8909;SDS011;4490;49.072;8.804;2022-08-02T05:20:42;4.17;;;3.40;;
8909;SDS011;4490;49.072;8.804;2022-08-02T05:23:07;4.47;;;3.10;;
8909;SDS011;4490;49.072;8.804;2022-08-02T05:25:33;3.67;;;3.37;;
8909;SDS011;4490;49.072;8.804;2022-08-02T05:27:59;5.50;;;3.30;;
8909;SDS011;4490;49.072;8.804;2022-08-02T05:30:24;4.00;;;2.87;;
8909;SDS011;4490;49.072;8.804;2022-08-02T05:32:50;7.60;;;4.10;;
8909;SDS011;4490;49.072;8.804;2022-08-02T05:35:19;6.50;;;3.67;;
8909;SDS011;4490;49.072;8.804;2022-08-02T05:37:47;6.10;;;3.70;;
8909;SDS011;4490;49.072;8.804;2022-08-02T05:40:13;6.00;;;3.47;;
8909;SDS011;4490;49.072;8.804;2022-08-02T05:42:40;4.93;;;3.67;;
8909;SDS011;4490;49.072;8.804;2022-08-02T05:45:06;3.40;;;3.10;;
8909;SDS011;4490;49.072;8.804;2022-08-02T05:47:33;3.43;;;2.97;;
8909;SDS011;4490;49.072;8.804;2022-08-02T05:49:59;3.30;;;3.00;;
8909;SDS011;4490;49.072;8.804;2022-08-02T05:52:25;3.20;;;2.63;;
8909;SDS011;4490;49.072;8.804;2022-08-02T05:55:02;4.20;;;2.70;;
8909;SDS011;4490;49.072;8.804;2022-08-02T06:00:14;3.20;;;2.40;;
8909;SDS011;4490;49.072;8.804;2022-08-02T06:02:47;2.90;;;2.60;;
8909;SDS011;4490;49.072;8.804;2022-08-02T06:05:20;3.37;;;3.07;;
8909;SDS011;4490;49.072;8.804;2022-08-02T06:07:47;4.70;;;3.60;;
8909;SDS011;4490;49.072;8.804;2022-08-02T06:10:14;4.50;;;4.10;;
8909;SDS011;4490;49.072;8.804;2022-08-02T06:12:49;6.28;;;3.70;;
8909;SDS011;4490;49.072;8.804;2022-08-02T06:15:20;6.93;;;3.75;;
8909;SDS011;4490;49.072;8.804;2022-08-02T06:17:46;6.00;;;3.92;;
8909;SDS011;4490;49.072;8.804;2022-08-02T06:20:13;3.90;;;3.50;;
8909;SDS011;4490;49.072;8.804;2022-08-02T06:22:40;3.40;;;3.10;;
8909;SDS011;4490;49.072;8.804;2022-08-02T06:25:07;4.55;;;3.30;;
8909;SDS011;4490;49.072;8.804;2022-08-02T06:27:34;3.58;;;3.28;;
8909;SDS011;4490;49.072;8.804;2022-08-02T06:30:02;4.25;;;3.42;;
8909;SDS011;4490;49.072;8.804;2022-08-02T06:32:31;5.13;;;3.60;;
8909;SDS011;4490;49.072;8.804;2022-08-02T06:34:58;4.22;;;3.83;;
8909;SDS011;4490;49.072;8.804;2022-08-02T06:40:10;6.65;;;4.43;;
8909;SDS011;4490;49.072;8.804;2022-08-02T06:42:57;5.75;;;5.15;;
8909;SDS011;4490;49.072;8.804;2022-08-02T06:45:35;5.45;;;4.93;;
8909;SDS011;4490;49.072;8.804;2022-08-02T06:48:01;6.63;;;5.40;;
8909;SDS011;4490;49.072;8.804;2022-08-02T06:50:26;6.53;;;4.57;;
8909;SDS011;4490;49.072;8.804;2022-08-02T06:52:52;6.35;;;4.72;;
8909;SDS011;4490;49.072;8.804;2022-08-02T06:55:18;5.90;;;5.10;;
8909;SDS011;4490;49.072;8.804;2022-08-02T06:57:43;6.55;;;5.22;;
8909;SDS011;4490;49.072;8.804;2022-08-02T07:00:09;6.57;;;5.85;;
8909;SDS011;4490;49.072;8.804;2022-08-02T07:02:36;5.90;;;5.07;;
8909;SDS011;4490;49.072;8.804;2022-08-02T07:05:03;10.05;;;5.70;;
8909;SDS011;4490;49.072;8.804;2022-08-02T07:07:31;9.23;;;5.60;;
8909;SDS011;4490;49.072;8.804;2022-08-02T07:09:57;4.85;;;4.45;;
8909;SDS011;4490;49.072;8.804;2022-08-02T07:12:24;4.13;;;3.72;;
8909;SDS011;4490;49.072;8.804;2022-08-02T07:14:50;3.70;;;3.40;;
8909;SDS011;4490;49.072;8.804;2022-08-02T07:17:15;3.63;;;3.33;;
8909;SDS011;4490;49.072;8.804;2022-08-02T07:19:41;7.03;;;3.42;;
8909;SDS011;4490;49.072;8.804;2022-08-02T07:22:07;4.70;;;3.72;;
8909;SDS011;4490;49.072;8.804;2022-08-02T07:24:33;4.47;;;4.07;;
8909;SDS011;4490;49.072;8.804;2022-08-02T07:26:58;7.30;;;3.47;;
8909;SDS011;4490;49.072;8.804;2022-08-02T07:29:24;6.28;;;3.60;;
8909;SDS011;4490;49.072;8.804;2022-08-02T07:31:50;4.05;;;3.60;;
8909;SDS011;4490;49.072;8.804;2022-08-02T07:34:16;3.95;;;3.40;;
8909;SDS011;4490;49.072;8.804;2022-08-02T07:36:42;3.70;;;3.40;;
8909;SDS011;4490;49.072;8.804;2022-08-02T07:39:07;5.07;;;3.70;;
8909;SDS011;4490;49.072;8.804;2022-08-02T07:41:33;4.10;;;3.30;;
8909;SDS011;4490;49.072;8.804;2022-08-02T07:43:59;3.80;;;3.35;;
8909;SDS011;4490;49.072;8.804;2022-08-02T07:46:24;4.00;;;3.45;;
8909;SDS011;4490;49.072;8.804;2022-08-02T07:48:50;4.50;;;2.90;;
8909;SDS011;4490;49.072;8.804;2022-08-02T07:51:18;4.25;;;3.83;;
8909;SDS011;4490;49.072;8.804;2022-08-02T07:53:47;6.72;;;3.67;;
8909;SDS011;4490;49.072;8.804;2022-08-02T07:56:12;3.95;;;3.47;;
8909;SDS011;4490;49.072;8.804;2022-08-02T07:58:39;3.97;;;3.63;;
8909;SDS011;4490;49.072;8.804;2022-08-02T08:01:05;5.30;;;3.45;;
8909;SDS011;4490;49.072;8.804;2022-08-02T08:03:31;4.50;;;3.72;;
8909;SDS011;4490;49.072;8.804;2022-08-02T08:05:56;4.88;;;3.25;;
8909;SDS011;4490;49.072;8.804;2022-08-02T08:08:22;3.72;;;3.42;;
8909;SDS011;4490;49.072;8.804;2022-08-02T08:10:48;4.45;;;2.88;;
8909;SDS011;4490;49.072;8.804;2022-08-02T08:13:14;3.60;;;2.83;;
8909;SDS011;4490;49.072;8.804;2022-08-02T08:15:40;3.10;;;2.90;;
8909;SDS011;4490;49.072;8.804;2022-08-02T08:18:06;3.50;;;2.75;;
8909;SDS011;4490;49.072;8.804;2022-08-02T08:20:31;2.90;;;2.70;;
8909;SDS011;4490;49.072;8.804;2022-08-02T08:22:57;3.35;;;3.08;;
8909;SDS011;4490;49.072;8.804;2022-08-02T08:25:23;3.10;;;2.80;;
8909;SDS011;4490;49.072;8.804;2022-08-02T08:27:51;2.83;;;2.45;;
8909;SDS011;4490;49.072;8.804;2022-08-02T08:30:18;4.00;;;2.95;;
8909;SDS011;4490;49.072;8.804;2022-08-02T08:32:45;3.33;;;2.92;;
8909;SDS011;4490;49.072;8.804;2022-08-02T08:35:11;2.67;;;2.50;;
8909;SDS011;4490;49.072;8.804;2022-08-02T08:37:38;3.47;;;2.63;;
8909;SDS011;4490;49.072;8.804;2022-08-02T08:40:04;2.72;;;2.53;;
8909;SDS011;4490;49.072;8.804;2022-08-02T08:42:31;2.80;;;2.60;;
8909;SDS011;4490;49.072;8.804;2022-08-02T08:44:57;3.00;;;2.80;;
8909;SDS011;4490;49.072;8.804;2022-08-02T08:47:59;2.40;;;2.20;;
8909;SDS011;4490;49.072;8.804;2022-08-02T08:50:19;2.83;;;2.63;;
8909;SDS011;4490;49.072;8.804;2022-08-02T08:52:52;2.58;;;2.38;;
8909;SDS011;4490;49.072;8.804;2022-08-02T08:55:22;3.33;;;2.63;;
8909;SDS011;4490;49.072;8.804;2022-08-02T08:57:49;2.75;;;2.55;;
8909;SDS011;4490;49.072;8.804;2022-08-02T09:00:16;2.70;;;2.50;;
8909;SDS011;4490;49.072;8.804;2022-08-02T09:02:42;3.03;;;2.83;;
8909;SDS011;4490;49.072;8.804;2022-08-02T09:05:09;4.32;;;3.13;;
8909;SDS011;4490;49.072;8.804;2022-08-02T09:07:35;4.32;;;2.65;;
8909;SDS011;4490;49.072;8.804;2022-08-02T09:10:04;3.22;;;2.60;;
8909;SDS011;4490;49.072;8.804;2022-08-02T09:13:12;5.35;;;3.17;;
8909;SDS011;4490;49.072;8.804;2022-08-02T09:15:55;2.80;;;2.60;;
8909;SDS011;4490;49.072;8.804;2022-08-02T09:18:31;2.88;;;2.67;;
8909;SDS011;4490;49.072;8.804;2022-08-02T09:20:59;3.25;;;2.85;;
8909;SDS011;4490;49.072;8.804;2022-08-02T09:23:33;4.30;;;2.65;;
8909;SDS011;4490;49.072;8.804;2022-08-02T09:26:02;3.55;;;2.58;;
8909;SDS011;4490;49.072;8.804;2022-08-02T09:28:30;4.32;;;2.90;;
8909;SDS011;4490;49.072;8.804;2022-08-02T09:33:31;3.10;;;2.58;;
8909;SDS011;4490;49.072;8.804;2022-08-02T09:36:19;6.32;;;3.00;;
8909;SDS011;4490;49.072;8.804;2022-08-02T09:38:51;4.00;;;2.72;;
8909;SDS011;4490;49.072;8.804;2022-08-02T09:41:28;4.38;;;2.65;;
8909;SDS011;4490;49.072;8.804;2022-08-02T09:43:56;4.80;;;2.80;;
8909;SDS011;4490;49.072;8.804;2022-08-02T09:46:26;3.17;;;2.72;;
8909;SDS011;4490;49.072;8.804;2022-08-02T09:48:55;4.03;;;3.00;;
8909;SDS011;4490;49.072;8.804;2022-08-02T09:51:25;2.97;;;2.65;;
8909;SDS011;4490;49.072;8.804;2022-08-02T09:53:55;3.22;;;2.55;;
8909;SDS011;4490;49.072;8.804;2022-08-02T09:56:22;3.75;;;2.83;;
8909;SDS011;4490;49.072;8.804;2022-08-02T09:58:49;4.85;;;2.95;;
8909;SDS011;4490;49.072;8.804;2022-08-02T10:01:17;2.80;;;2.60;;
8909;SDS011;4490;49.072;8.804;2022-08-02T10:03:53;4.93;;;2.78;;
8909;SDS011;4490;49.072;8.804;2022-08-02T10:06:23;4.50;;;3.20;;
8909;SDS011;4490;49.072;8.804;2022-08-02T10:08:50;4.03;;;3.03;;
8909;SDS011;4490;49.072;8.804;2022-08-02T10:11:17;3.85;;;3.00;;
8909;SDS011;4490;49.072;8.804;2022-08-02T10:13:47;3.75;;;3.38;;
8909;SDS011;4490;49.072;8.804;2022-08-02T10:16:15;3.25;;;2.65;;
8909;SDS011;4490;49.072;8.804;2022-08-02T10:18:42;3.03;;;2.83;;
8909;SDS011;4490;49.072;8.804;2022-08-02T10:21:11;4.90;;;2.72;;
8909;SDS011;4490;49.072;8.804;2022-08-02T10:23:39;3.63;;;2.80;;
8909;SDS011;4490;49.072;8.804;2022-08-02T10:26:07;6.03;;;3.20;;
8909;SDS011;4490;49.072;8.804;2022-08-02T10:28:36;4.20;;;3.00;;
8909;SDS011;4490;49.072;8.804;2022-08-02T10:31:03;3.88;;;3.05;;
8909;SDS011;4490;49.072;8.804;2022-08-02T10:33:29;5.07;;;2.90;;
8909;SDS011;4490;49.072;8.804;2022-08-02T10:35:57;4.22;;;2.90;;
8909;SDS011;4490;49.072;8.804;2022-08-02T10:38:24;2.92;;;2.72;;
8909;SDS011;4490;49.072;8.804;2022-08-02T10:40:51;3.00;;;2.80;;
8909;SDS011;4490;49.072;8.804;2022-08-02T10:54:31;3.00;;;2.55;;
8909;SDS011;4490;49.072;8.804;2022-08-02T10:56:59;3.70;;;2.92;;
8909;SDS011;4490;49.072;8.804;2022-08-02T10:59:26;3.40;;;3.10;;
8909;SDS011;4490;49.072;8.804;2022-08-02T11:02:00;3.38;;;2.58;;
8909;SDS011;4490;49.072;8.804;2022-08-02T11:05:00;3.17;;;2.75;;
8909;SDS011;4490;49.072;8.804;2022-08-02T11:07:29;3.47;;;2.80;;
8909;SDS011;4490;49.072;8.804;2022-08-02T11:18:11;3.22;;;2.92;;
8909;SDS011;4490;49.072;8.804;2022-08-02T11:20:37;2.33;;;2.22;;
8909;SDS011;4490;49.072;8.804;2022-08-02T11:23:45;2.63;;;2.50;;
8909;SDS011;4490;49.072;8.804;2022-08-02T11:26:01;3.72;;;2.58;;
8909;SDS011;4490;49.072;8.804;2022-08-02T11:28:29;2.90;;;2.60;;
8909;SDS011;4490;49.072;8.804;2022-08-02T11:30:57;4.45;;;2.55;;
8909;SDS011;4490;49.072;8.804;2022-08-02T11:33:30;2.88;;;2.50;;
8909;SDS011;4490;49.072;8.804;2022-08-02T11:36:01;3.15;;;2.50;;
8909;SDS011;4490;49.072;8.804;2022-08-02T11:38:28;3.28;;;2.40;;
8909;SDS011;4490;49.072;8.804;2022-08-02T11:40:53;2.40;;;2.30;;
8909;SDS011;4490;49.072;8.804;2022-08-02T11:43:20;3.72;;;2.67;;
8909;SDS011;4490;49.072;8.804;2022-08-02T11:45:49;2.88;;;2.65;;
8909;SDS011;4490;49.072;8.804;2022-08-02T11:48:38;2.53;;;2.33;;
8909;SDS011;4490;49.072;8.804;2022-08-02T11:51:13;3.55;;;2.40;;
8909;SDS011;4490;49.072;8.804;2022-08-02T11:56:15;3.05;;;2.65;;
8909;SDS011;4490;49.072;8.804;2022-08-02T12:01:29;3.03;;;2.65;;
8909;SDS011;4490;49.072;8.804;2022-08-02T12:03:56;2.60;;;2.40;;
8909;SDS011;4490;49.072;8.804;2022-08-02T12:06:27;2.42;;;2.30;;
8909;SDS011;4490;49.072;8.804;2022-08-02T12:08:58;2.42;;;2.33;;
8909;SDS011;4490;49.072;8.804;2022-08-02T12:11:32;2.40;;;2.20;;
8909;SDS011;4490;49.072;8.804;2022-08-02T12:13:58;2.47;;;2.22;;
8909;SDS011;4490;49.072;8.804;2022-08-02T12:16:24;2.55;;;2.35;;
8909;SDS011;4490;49.072;8.804;2022-08-02T12:19:20;2.25;;;2.15;;
8909;SDS011;4490;49.072;8.804;2022-08-02T12:21:48;3.30;;;2.70;;
8909;SDS011;4490;49.072;8.804;2022-08-02T12:24:31;2.53;;;2.42;;
8909;SDS011;4490;49.072;8.804;2022-08-02T12:26:57;3.20;;;2.60;;
8909;SDS011;4490;49.072;8.804;2022-08-02T12:29:34;4.07;;;2.22;;
8909;SDS011;4490;49.072;8.804;2022-08-02T12:32:05;3.88;;;2.30;;
8909;SDS011;4490;49.072;8.804;2022-08-02T12:34:31;2.60;;;2.40;;
8909;SDS011;4490;49.072;8.804;2022-08-02T12:37:03;2.22;;;2.13;;
8909;SDS011;4490;49.072;8.804;2022-08-02T12:39:37;2.90;;;2.00;;
8909;SDS011;4490;49.072;8.804;2022-08-02T12:42:05;2.33;;;2.10;;
8909;SDS011;4490;49.072;8.804;2022-08-02T12:44:33;2.67;;;2.47;;
8909;SDS011;4490;49.072;8.804;2022-08-02T12:47:01;3.05;;;2.38;;
8909;SDS011;4490;49.072;8.804;2022-08-02T12:49:33;4.43;;;2.40;;
8909;SDS011;4490;49.072;8.804;2022-08-02T12:51:59;2.78;;;2.30;;
8909;SDS011;4490;49.072;8.804;2022-08-02T12:54:30;2.28;;;2.08;;
8909;SDS011;4490;49.072;8.804;2022-08-02T12:57:10;2.92;;;2.15;;
8909;SDS011;4490;49.072;8.804;2022-08-02T12:59:37;2.55;;;2.35;;
8909;SDS011;4490;49.072;8.804;2022-08-02T13:02:06;2.72;;;2.50;;
8909;SDS011;4490;49.072;8.804;2022-08-02T13:04:34;2.15;;;2.05;;
8909;SDS011;4490;49.072;8.804;2022-08-02T13:07:00;2.10;;;1.90;;
8909;SDS011;4490;49.072;8.804;2022-08-02T13:09:27;2.20;;;2.10;;
8909;SDS011;4490;49.072;8.804;2022-08-02T13:11:52;2.22;;;2.03;;
8909;SDS011;4490;49.072;8.804;2022-08-02T13:14:18;2.40;;;2.20;;
8909;SDS011;4490;49.072;8.804;2022-08-02T13:16:45;2.53;;;2.10;;
8909;SDS011;4490;49.072;8.804;2022-08-02T13:19:11;3.53;;;2.25;;
8909;SDS011;4490;49.072;8.804;2022-08-02T13:21:39;2.50;;;2.30;;
8909;SDS011;4490;49.072;8.804;2022-08-02T13:24:05;2.30;;;2.15;;
8909;SDS011;4490;49.072;8.804;2022-08-02T13:26:31;2.22;;;2.10;;
8909;SDS011;4490;49.072;8.804;2022-08-02T13:28:56;2.75;;;2.22;;
8909;SDS011;4490;49.072;8.804;2022-08-02T13:31:22;2.08;;;1.92;;
8909;SDS011;4490;49.072;8.804;2022-08-02T13:33:48;2.10;;;2.00;;
8909;SDS011;4490;49.072;8.804;2022-08-02T13:36:13;1.90;;;1.80;;
8909;SDS011;4490;49.072;8.804;2022-08-02T13:38:39;2.20;;;2.10;;
8909;SDS011;4490;49.072;8.804;2022-08-02T13:41:04;1.90;;;1.80;;
8909;SDS011;4490;49.072;8.804;2022-08-02T13:43:33;2.55;;;2.35;;
8909;SDS011;4490;49.072;8.804;2022-08-02T13:46:00;2.38;;;2.25;;
8909;SDS011;4490;49.072;8.804;2022-08-02T13:48:25;2.10;;;2.00;;
8909;SDS011;4490;49.072;8.804;2022-08-02T13:50:52;2.42;;;2.22;;
8909;SDS011;4490;49.072;8.804;2022-08-02T13:53:18;2.40;;;2.20;;
8909;SDS011;4490;49.072;8.804;2022-08-02T13:55:43;2.10;;;2.00;;
8909;SDS011;4490;49.072;8.804;2022-08-02T13:58:09;2.22;;;2.13;;
8909;SDS011;4490;49.072;8.804;2022-08-02T14:00:35;2.45;;;2.25;;
8909;SDS011;4490;49.072;8.804;2022-08-02T14:03:00;2.97;;;1.90;;
8909;SDS011;4490;49.072;8.804;2022-08-02T14:05:26;2.28;;;2.17;;
8909;SDS011;4490;49.072;8.804;2022-08-02T14:07:57;2.40;;;2.20;;
8909;SDS011;4490;49.072;8.804;2022-08-02T14:10:23;2.10;;;2.00;;
8909;SDS011;4490;49.072;8.804;2022-08-02T14:12:52;2.13;;;1.95;;
8909;SDS011;4490;49.072;8.804;2022-08-02T14:15:17;2.83;;;2.20;;
8909;SDS011;4490;49.072;8.804;2022-08-02T14:17:43;2.65;;;2.10;;
8909;SDS011;4490;49.072;8.804;2022-08-02T14:20:09;2.30;;;2.20;;
8909;SDS011;4490;49.072;8.804;2022-08-02T14:22:36;2.20;;;2.10;;
8909;SDS011;4490;49.072;8.804;2022-08-02T14:25:02;2.22;;;2.08;;
8909;SDS011;4490;49.072;8.804;2022-08-02T14:27:28;2.20;;;2.10;;
8909;SDS011;4490;49.072;8.804;2022-08-02T14:29:55;2.33;;;2.22;;
8909;SDS011;4490;49.072;8.804;2022-08-02T14:32:21;2.85;;;2.25;;
8909;SDS011;4490;49.072;8.804;2022-08-02T14:34:47;2.33;;;2.10;;
8909;SDS011;4490;49.072;8.804;2022-08-02T14:37:12;2.10;;;2.00;;
8909;SDS011;4490;49.072;8.804;2022-08-02T14:39:38;2.10;;;2.00;;
8909;SDS011;4490;49.072;8.804;2022-08-02T14:42:03;2.25;;;2.05;;
8909;SDS011;4490;49.072;8.804;2022-08-02T14:44:29;2.50;;;2.30;;
8909;SDS011;4490;49.072;8.804;2022-08-02T14:46:55;2.40;;;2.10;;
8909;SDS011;4490;49.072;8.804;2022-08-02T14:49:21;2.08;;;1.98;;
8909;SDS011;4490;49.072;8.804;2022-08-02T14:51:47;3.60;;;2.10;;
8909;SDS011;4490;49.072;8.804;2022-08-02T14:54:13;2.90;;;2.05;;
8909;SDS011;4490;49.072;8.804;2022-08-02T14:56:38;2.75;;;1.98;;
8909;SDS011;4490;49.072;8.804;2022-08-02T14:59:04;2.08;;;1.98;;
8909;SDS011;4490;49.072;8.804;2022-08-02T15:01:30;3.78;;;2.25;;
8909;SDS011;4490;49.072;8.804;2022-08-02T15:03:56;2.42;;;2.22;;
8909;SDS011;4490;49.072;8.804;2022-08-02T15:06:22;2.13;;;1.92;;
8909;SDS011;4490;49.072;8.804;2022-08-02T15:08:48;2.00;;;1.90;;
8909;SDS011;4490;49.072;8.804;2022-08-02T15:11:13;2.55;;;2.03;;
8909;SDS011;4490;49.072;8.804;2022-08-02T15:13:39;3.30;;;2.28;;
8909;SDS011;4490;49.072;8.804;2022-08-02T15:16:05;2.92;;;2.20;;
8909;SDS011;4490;49.072;8.804;2022-08-02T15:18:31;2.92;;;2.35;;
8909;SDS011;4490;49.072;8.804;2022-08-02T15:20:56;3.22;;;2.30;;
8909;SDS011;4490;49.072;8.804;2022-08-02T15:23:23;2.40;;;2.20;;
8909;SDS011;4490;49.072;8.804;2022-08-02T15:25:49;2.30;;;2.20;;
8909;SDS011;4490;49.072;8.804;2022-08-02T15:28:15;2.35;;;1.90;;
8909;SDS011;4490;49.072;8.804;2022-08-02T15:30:40;2.40;;;2.20;;
8909;SDS011;4490;49.072;8.804;2022-08-02T15:33:06;2.55;;;2.20;;
8909;SDS011;4490;49.072;8.804;2022-08-02T15:35:32;2.60;;;2.40;;
8909;SDS011;4490;49.072;8.804;2022-08-02T15:37:58;2.38;;;2.17;;
8909;SDS011;4490;49.072;8.804;2022-08-02T15:40:24;2.50;;;2.30;;
8909;SDS011;4490;49.072;8.804;2022-08-02T15:42:50;2.42;;;2.22;;
8909;SDS011;4490;49.072;8.804;2022-08-02T15:45:16;2.55;;;2.22;;
8909;SDS011;4490;49.072;8.804;2022-08-02T15:47:43;2.67;;;2.22;;
8909;SDS011;4490;49.072;8.804;2022-08-02T15:50:09;2.50;;;2.22;;
8909;SDS011;4490;49.072;8.804;2022-08-02T15:52:35;2.78;;;2.30;;
8909;SDS011;4490;49.072;8.804;2022-08-02T15:55:01;3.05;;;2.33;;
8909;SDS011;4490;49.072;8.804;2022-08-02T15:57:26;2.30;;;2.20;;
8909;SDS011;4490;49.072;8.804;2022-08-02T15:59:53;4.00;;;2.13;;
8909;SDS011;4490;49.072;8.804;2022-08-02T16:02:19;3.13;;;2.40;;
8909;SDS011;4490;49.072;8.804;2022-08-02T16:04:46;2.08;;;1.90;;
8909;SDS011;4490;49.072;8.804;2022-08-02T16:07:12;2.40;;;2.20;;
8909;SDS011;4490;49.072;8.804;2022-08-02T16:09:38;2.47;;;2.25;;